sensor_id;sensor_type;location;lat;lon;timestamp;P1;durP1;ratioP1;P2;durP2;ratioP2
15669;SDS011;18524;45.190;5.732;2023-04-25T00:04:11;4.40;;;2.63;;
15669;SDS011;18524;45.190;5.732;2023-04-25T00:09:02;4.30;;;2.63;;
15669;SDS011;18524;45.190;5.732;2023-04-25T00:13:59;2.80;;;2.60;;
15669;SDS011;18524;45.190;5.732;2023-04-25T00:18:52;4.07;;;2.80;;
15669;SDS011;18524;45.190;5.732;2023-04-25T00:23:43;3.90;;;3.00;;
15669;SDS011;18524;45.190;5.732;2023-04-25T00:28:35;4.47;;;2.90;;
15669;SDS011;18524;45.190;5.732;2023-04-25T00:33:26;5.00;;;3.40;;
15669;SDS011;18524;45.190;5.732;2023-04-25T00:38:16;3.00;;;2.70;;
15669;SDS011;18524;45.190;5.732;2023-04-25T00:43:06;3.50;;;3.13;;
15669;SDS011;18524;45.190;5.732;2023-04-25T00:47:57;3.87;;;3.17;;
15669;SDS011;18524;45.190;5.732;2023-04-25T00:52:47;4.33;;;2.77;;
15669;SDS011;18524;45.190;5.732;2023-04-25T00:57:38;4.60;;;2.70;;
15669;SDS011;18524;45.190;5.732;2023-04-25T01:02:29;2.80;;;2.47;;
15669;SDS011;18524;45.190;5.732;2023-04-25T01:07:20;2.53;;;2.33;;
15669;SDS011;18524;45.190;5.732;2023-04-25T01:12:10;3.27;;;2.60;;
15669;SDS011;18524;45.190;5.732;2023-04-25T01:17:01;4.80;;;2.80;;
15669;SDS011;18524;45.190;5.732;2023-04-25T01:21:52;2.70;;;2.50;;
15669;SDS011;18524;45.190;5.732;2023-04-25T01:26:42;2.47;;;2.27;;
15669;SDS011;18524;45.190;5.732;2023-04-25T01:31:39;2.77;;;2.57;;
15669;SDS011;18524;45.190;5.732;2023-04-25T01:36:30;3.20;;;2.60;;
15669;SDS011;18524;45.190;5.732;2023-04-25T01:41:21;2.77;;;2.50;;
15669;SDS011;18524;45.190;5.732;2023-04-25T01:46:13;4.13;;;2.67;;
15669;SDS011;18524;45.190;5.732;2023-04-25T01:51:03;3.33;;;2.30;;
15669;SDS011;18524;45.190;5.732;2023-04-25T01:55:54;4.47;;;2.60;;
15669;SDS011;18524;45.190;5.732;2023-04-25T02:00:44;3.67;;;2.37;;
15669;SDS011;18524;45.190;5.732;2023-04-25T02:05:38;3.00;;;2.20;;
15669;SDS011;18524;45.190;5.732;2023-04-25T02:10:29;3.80;;;2.37;;
15669;SDS011;18524;45.190;5.732;2023-04-25T02:15:19;4.27;;;2.30;;
15669;SDS011;18524;45.190;5.732;2023-04-25T02:20:10;3.00;;;2.70;;
15669;SDS011;18524;45.190;5.732;2023-04-25T02:25:01;2.60;;;2.20;;
15669;SDS011;18524;45.190;5.732;2023-04-25T02:29:52;3.90;;;2.40;;
15669;SDS011;18524;45.190;5.732;2023-04-25T02:34:42;4.57;;;2.37;;
15669;SDS011;18524;45.190;5.732;2023-04-25T02:39:32;3.73;;;2.53;;
15669;SDS011;18524;45.190;5.732;2023-04-25T02:44:23;3.47;;;2.23;;
15669;SDS011;18524;45.190;5.732;2023-04-25T02:49:13;3.63;;;2.60;;
15669;SDS011;18524;45.190;5.732;2023-04-25T02:54:04;3.00;;;2.47;;
15669;SDS011;18524;45.190;5.732;2023-04-25T02:58:54;5.33;;;2.70;;
15669;SDS011;18524;45.190;5.732;2023-04-25T03:03:44;4.07;;;2.50;;
15669;SDS011;18524;45.190;5.732;2023-04-25T03:08:35;2.57;;;2.37;;
15669;SDS011;18524;45.190;5.732;2023-04-25T03:13:26;2.80;;;2.60;;
15669;SDS011;18524;45.190;5.732;2023-04-25T03:18:17;2.63;;;2.43;;
15669;SDS011;18524;45.190;5.732;2023-04-25T03:23:07;3.47;;;2.73;;
15669;SDS011;18524;45.190;5.732;2023-04-25T03:27:58;4.50;;;2.90;;
15669;SDS011;18524;45.190;5.732;2023-04-25T03:32:48;3.67;;;2.70;;
15669;SDS011;18524;45.190;5.732;2023-04-25T03:37:38;3.10;;;2.40;;
15669;SDS011;18524;45.190;5.732;2023-04-25T03:42:30;4.77;;;2.90;;
15669;SDS011;18524;45.190;5.732;2023-04-25T03:47:20;4.53;;;2.73;;
15669;SDS011;18524;45.190;5.732;2023-04-25T03:52:11;5.23;;;3.07;;
15669;SDS011;18524;45.190;5.732;2023-04-25T03:57:01;4.27;;;3.40;;
15669;SDS011;18524;45.190;5.732;2023-04-25T04:01:52;4.43;;;3.60;;
15669;SDS011;18524;45.190;5.732;2023-04-25T04:06:42;4.87;;;3.30;;
15669;SDS011;18524;45.190;5.732;2023-04-25T04:11:33;4.83;;;3.13;;
15669;SDS011;18524;45.190;5.732;2023-04-25T04:16:23;4.43;;;3.23;;
15669;SDS011;18524;45.190;5.732;2023-04-25T04:21:13;5.17;;;3.40;;
15669;SDS011;18524;45.190;5.732;2023-04-25T04:26:04;7.50;;;3.77;;
15669;SDS011;18524;45.190;5.732;2023-04-25T04:30:55;4.90;;;3.30;;
15669;SDS011;18524;45.190;5.732;2023-04-25T04:35:45;4.73;;;3.43;;
15669;SDS011;18524;45.190;5.732;2023-04-25T04:40:36;6.73;;;3.80;;
15669;SDS011;18524;45.190;5.732;2023-04-25T04:45:27;6.33;;;3.97;;
15669;SDS011;18524;45.190;5.732;2023-04-25T04:50:18;6.30;;;3.97;;
15669;SDS011;18524;45.190;5.732;2023-04-25T04:55:09;5.50;;;4.17;;
15669;SDS011;18524;45.190;5.732;2023-04-25T04:59:59;6.87;;;3.73;;
15669;SDS011;18524;45.190;5.732;2023-04-25T05:04:50;6.17;;;3.80;;
15669;SDS011;18524;45.190;5.732;2023-04-25T05:09:41;5.37;;;3.57;;
15669;SDS011;18524;45.190;5.732;2023-04-25T05:14:31;5.93;;;4.03;;
15669;SDS011;18524;45.190;5.732;2023-04-25T05:19:22;6.57;;;3.57;;
15669;SDS011;18524;45.190;5.732;2023-04-25T05:24:13;4.63;;;3.60;;
15669;SDS011;18524;45.190;5.732;2023-04-25T05:29:04;5.87;;;3.70;;
15669;SDS011;18524;45.190;5.732;2023-04-25T05:33:55;6.20;;;3.77;;
15669;SDS011;18524;45.190;5.732;2023-04-25T05:38:45;5.80;;;3.40;;
15669;SDS011;18524;45.190;5.732;2023-04-25T05:43:36;6.47;;;3.63;;
15669;SDS011;18524;45.190;5.732;2023-04-25T05:48:26;5.10;;;3.70;;
15669;SDS011;18524;45.190;5.732;2023-04-25T05:53:17;7.13;;;3.60;;
15669;SDS011;18524;45.190;5.732;2023-04-25T05:58:08;7.43;;;3.77;;
15669;SDS011;18524;45.190;5.732;2023-04-25T06:02:58;6.83;;;3.50;;
15669;SDS011;18524;45.190;5.732;2023-04-25T06:07:49;8.30;;;4.27;;
15669;SDS011;18524;45.190;5.732;2023-04-25T06:12:40;7.57;;;4.23;;
15669;SDS011;18524;45.190;5.732;2023-04-25T06:17:30;11.23;;;6.93;;
15669;SDS011;18524;45.190;5.732;2023-04-25T06:22:20;9.93;;;3.43;;
15669;SDS011;18524;45.190;5.732;2023-04-25T06:27:11;5.97;;;3.60;;
15669;SDS011;18524;45.190;5.732;2023-04-25T06:32:01;6.27;;;3.90;;
15669;SDS011;18524;45.190;5.732;2023-04-25T06:36:52;8.03;;;4.07;;
15669;SDS011;18524;45.190;5.732;2023-04-25T06:41:42;5.10;;;3.37;;
15669;SDS011;18524;45.190;5.732;2023-04-25T06:46:32;8.13;;;3.87;;
15669;SDS011;18524;45.190;5.732;2023-04-25T06:51:23;9.27;;;4.07;;
15669;SDS011;18524;45.190;5.732;2023-04-25T06:56:14;8.67;;;4.30;;
15669;SDS011;18524;45.190;5.732;2023-04-25T07:01:04;7.57;;;3.83;;
15669;SDS011;18524;45.190;5.732;2023-04-25T07:05:55;6.43;;;3.70;;
15669;SDS011;18524;45.190;5.732;2023-04-25T07:10:45;9.70;;;4.30;;
15669;SDS011;18524;45.190;5.732;2023-04-25T07:15:36;5.37;;;3.90;;
15669;SDS011;18524;45.190;5.732;2023-04-25T07:20:26;7.33;;;4.13;;
15669;SDS011;18524;45.190;5.732;2023-04-25T07:25:17;6.33;;;4.20;;
15669;SDS011;18524;45.190;5.732;2023-04-25T07:30:08;7.80;;;4.10;;
15669;SDS011;18524;45.190;5.732;2023-04-25T07:34:59;8.27;;;4.30;;
15669;SDS011;18524;45.190;5.732;2023-04-25T07:39:49;9.50;;;4.30;;
15669;SDS011;18524;45.190;5.732;2023-04-25T07:44:39;6.80;;;4.13;;
15669;SDS011;18524;45.190;5.732;2023-04-25T07:49:30;7.50;;;4.53;;
15669;SDS011;18524;45.190;5.732;2023-04-25T07:54:20;7.37;;;4.57;;
15669;SDS011;18524;45.190;5.732;2023-04-25T07:59:11;6.13;;;4.00;;
15669;SDS011;18524;45.190;5.732;2023-04-25T08:04:01;10.07;;;4.60;;
15669;SDS011;18524;45.190;5.732;2023-04-25T08:08:52;9.53;;;4.43;;
15669;SDS011;18524;45.190;5.732;2023-04-25T08:13:42;6.33;;;4.00;;
15669;SDS011;18524;45.190;5.732;2023-04-25T08:18:33;6.53;;;4.03;;
15669;SDS011;18524;45.190;5.732;2023-04-25T08:23:23;7.90;;;4.03;;
15669;SDS011;18524;45.190;5.732;2023-04-25T08:28:14;8.80;;;4.10;;
15669;SDS011;18524;45.190;5.732;2023-04-25T08:33:05;5.97;;;3.97;;
15669;SDS011;18524;45.190;5.732;2023-04-25T08:37:55;6.50;;;3.90;;
15669;SDS011;18524;45.190;5.732;2023-04-25T08:42:45;5.40;;;3.83;;
15669;SDS011;18524;45.190;5.732;2023-04-25T08:47:38;7.37;;;4.57;;
15669;SDS011;18524;45.190;5.732;2023-04-25T08:52:30;5.23;;;4.20;;
15669;SDS011;18524;45.190;5.732;2023-04-25T08:57:33;7.27;;;3.73;;
15669;SDS011;18524;45.190;5.732;2023-04-25T09:02:23;7.33;;;4.90;;
15669;SDS011;18524;45.190;5.732;2023-04-25T09:07:14;9.17;;;5.07;;
15669;SDS011;18524;45.190;5.732;2023-04-25T09:12:08;5.70;;;3.70;;
15669;SDS011;18524;45.190;5.732;2023-04-25T09:16:59;6.73;;;4.50;;
15669;SDS011;18524;45.190;5.732;2023-04-25T09:21:51;5.17;;;3.43;;
15669;SDS011;18524;45.190;5.732;2023-04-25T09:26:44;7.50;;;5.23;;
15669;SDS011;18524;45.190;5.732;2023-04-25T09:31:34;3.73;;;3.30;;
15669;SDS011;18524;45.190;5.732;2023-04-25T09:36:25;5.83;;;3.50;;
15669;SDS011;18524;45.190;5.732;2023-04-25T09:41:23;5.63;;;4.47;;
15669;SDS011;18524;45.190;5.732;2023-04-25T09:46:14;5.83;;;4.00;;
15669;SDS011;18524;45.190;5.732;2023-04-25T09:51:09;5.23;;;3.63;;
15669;SDS011;18524;45.190;5.732;2023-04-25T09:56:03;6.43;;;3.10;;
15669;SDS011;18524;45.190;5.732;2023-04-25T10:00:56;6.37;;;3.70;;
15669;SDS011;18524;45.190;5.732;2023-04-25T10:05:51;4.43;;;3.57;;
15669;SDS011;18524;45.190;5.732;2023-04-25T10:10:42;7.30;;;5.47;;
15669;SDS011;18524;45.190;5.732;2023-04-25T10:15:34;4.03;;;3.40;;
15669;SDS011;18524;45.190;5.732;2023-04-25T10:20:25;6.23;;;3.17;;
15669;SDS011;18524;45.190;5.732;2023-04-25T10:25:16;3.70;;;2.83;;
15669;SDS011;18524;45.190;5.732;2023-04-25T10:30:08;3.57;;;3.00;;
15669;SDS011;18524;45.190;5.732;2023-04-25T10:35:14;5.00;;;3.40;;
15669;SDS011;18524;45.190;5.732;2023-04-25T10:40:09;4.30;;;3.23;;
15669;SDS011;18524;45.190;5.732;2023-04-25T10:45:00;4.83;;;3.00;;
15669;SDS011;18524;45.190;5.732;2023-04-25T10:49:53;4.03;;;3.40;;
15669;SDS011;18524;45.190;5.732;2023-04-25T10:54:47;4.97;;;3.10;;
15669;SDS011;18524;45.190;5.732;2023-04-25T10:59:39;5.87;;;3.40;;
15669;SDS011;18524;45.190;5.732;2023-04-25T11:04:31;4.27;;;3.30;;
15669;SDS011;18524;45.190;5.732;2023-04-25T11:09:23;3.97;;;3.17;;
15669;SDS011;18524;45.190;5.732;2023-04-25T11:14:14;6.30;;;3.40;;
15669;SDS011;18524;45.190;5.732;2023-04-25T11:19:04;3.90;;;3.17;;
15669;SDS011;18524;45.190;5.732;2023-04-25T11:23:58;4.90;;;2.90;;
15669;SDS011;18524;45.190;5.732;2023-04-25T11:28:49;3.67;;;2.90;;
15669;SDS011;18524;45.190;5.732;2023-04-25T11:33:40;4.97;;;2.83;;
15669;SDS011;18524;45.190;5.732;2023-04-25T11:38:30;3.60;;;2.77;;
15669;SDS011;18524;45.190;5.732;2023-04-25T11:43:21;5.70;;;2.63;;
15669;SDS011;18524;45.190;5.732;2023-04-25T11:48:12;3.87;;;3.20;;
15669;SDS011;18524;45.190;5.732;2023-04-25T11:53:03;3.30;;;3.00;;
15669;SDS011;18524;45.190;5.732;2023-04-25T11:57:53;5.43;;;3.30;;
15669;SDS011;18524;45.190;5.732;2023-04-25T12:02:44;3.53;;;2.63;;
15669;SDS011;18524;45.190;5.732;2023-04-25T12:07:36;3.53;;;2.80;;
15669;SDS011;18524;45.190;5.732;2023-04-25T12:12:34;3.50;;;3.13;;
15669;SDS011;18524;45.190;5.732;2023-04-25T12:17:25;5.40;;;3.10;;
15669;SDS011;18524;45.190;5.732;2023-04-25T12:22:19;3.67;;;2.97;;
15669;SDS011;18524;45.190;5.732;2023-04-25T12:27:13;5.40;;;3.20;;
15669;SDS011;18524;45.190;5.732;2023-04-25T12:32:06;3.53;;;3.00;;
15669;SDS011;18524;45.190;5.732;2023-04-25T12:36:56;4.20;;;2.97;;
15669;SDS011;18524;45.190;5.732;2023-04-25T12:41:47;3.77;;;2.70;;
15669;SDS011;18524;45.190;5.732;2023-04-25T12:46:38;4.73;;;3.10;;
15669;SDS011;18524;45.190;5.732;2023-04-25T12:51:30;3.30;;;2.70;;
15669;SDS011;18524;45.190;5.732;2023-04-25T12:56:22;4.73;;;2.63;;
15669;SDS011;18524;45.190;5.732;2023-04-25T13:01:13;4.23;;;3.13;;
15669;SDS011;18524;45.190;5.732;2023-04-25T13:06:04;4.33;;;2.73;;
15669;SDS011;18524;45.190;5.732;2023-04-25T13:10:55;3.53;;;2.90;;
15669;SDS011;18524;45.190;5.732;2023-04-25T13:15:45;3.17;;;2.47;;
15669;SDS011;18524;45.190;5.732;2023-04-25T13:20:36;3.97;;;2.90;;
15669;SDS011;18524;45.190;5.732;2023-04-25T13:25:26;3.87;;;2.80;;
15669;SDS011;18524;45.190;5.732;2023-04-25T13:30:16;3.67;;;2.70;;
15669;SDS011;18524;45.190;5.732;2023-04-25T13:35:09;2.67;;;2.47;;
15669;SDS011;18524;45.190;5.732;2023-04-25T13:40:01;3.80;;;2.80;;
15669;SDS011;18524;45.190;5.732;2023-04-25T13:44:54;3.50;;;2.77;;
15669;SDS011;18524;45.190;5.732;2023-04-25T13:49:45;4.60;;;2.60;;
15669;SDS011;18524;45.190;5.732;2023-04-25T13:54:35;4.93;;;2.70;;
15669;SDS011;18524;45.190;5.732;2023-04-25T13:59:25;4.13;;;2.70;;
15669;SDS011;18524;45.190;5.732;2023-04-25T14:04:16;3.30;;;2.63;;
15669;SDS011;18524;45.190;5.732;2023-04-25T14:09:06;3.97;;;2.80;;
15669;SDS011;18524;45.190;5.732;2023-04-25T14:14:00;3.00;;;2.20;;
15669;SDS011;18524;45.190;5.732;2023-04-25T14:18:50;3.63;;;2.47;;
15669;SDS011;18524;45.190;5.732;2023-04-25T14:23:40;5.17;;;2.50;;
15669;SDS011;18524;45.190;5.732;2023-04-25T14:28:31;4.43;;;2.30;;
15669;SDS011;18524;45.190;5.732;2023-04-25T14:33:21;4.60;;;2.50;;
15669;SDS011;18524;45.190;5.732;2023-04-25T14:38:12;2.87;;;2.30;;
15669;SDS011;18524;45.190;5.732;2023-04-25T14:43:02;4.07;;;2.23;;
15669;SDS011;18524;45.190;5.732;2023-04-25T14:47:52;3.17;;;2.50;;
15669;SDS011;18524;45.190;5.732;2023-04-25T14:52:43;2.87;;;2.40;;
15669;SDS011;18524;45.190;5.732;2023-04-25T14:57:35;5.20;;;2.60;;
15669;SDS011;18524;45.190;5.732;2023-04-25T15:02:25;5.03;;;2.40;;
15669;SDS011;18524;45.190;5.732;2023-04-25T15:07:16;2.83;;;2.50;;
15669;SDS011;18524;45.190;5.732;2023-04-25T15:12:07;4.03;;;2.27;;
15669;SDS011;18524;45.190;5.732;2023-04-25T15:16:57;2.63;;;2.00;;
15669;SDS011;18524;45.190;5.732;2023-04-25T15:21:47;4.63;;;2.13;;
15669;SDS011;18524;45.190;5.732;2023-04-25T15:26:38;2.50;;;2.30;;
15669;SDS011;18524;45.190;5.732;2023-04-25T15:31:29;4.03;;;1.97;;
15669;SDS011;18524;45.190;5.732;2023-04-25T15:36:20;2.30;;;2.10;;
15669;SDS011;18524;45.190;5.732;2023-04-25T15:41:11;2.93;;;1.90;;
15669;SDS011;18524;45.190;5.732;2023-04-25T15:46:02;3.60;;;2.20;;
15669;SDS011;18524;45.190;5.732;2023-04-25T15:50:52;3.73;;;2.23;;
15669;SDS011;18524;45.190;5.732;2023-04-25T15:55:43;5.00;;;2.07;;
15669;SDS011;18524;45.190;5.732;2023-04-25T16:00:33;2.97;;;2.00;;
15669;SDS011;18524;45.190;5.732;2023-04-25T16:05:25;3.93;;;2.20;;
15669;SDS011;18524;45.190;5.732;2023-04-25T16:10:15;2.13;;;1.90;;
15669;SDS011;18524;45.190;5.732;2023-04-25T16:15:10;2.73;;;1.97;;
15669;SDS011;18524;45.190;5.732;2023-04-25T16:20:00;2.07;;;1.83;;
15669;SDS011;18524;45.190;5.732;2023-04-25T16:24:53;5.80;;;1.90;;
15669;SDS011;18524;45.190;5.732;2023-04-25T16:29:43;3.63;;;1.93;;
15669;SDS011;18524;45.190;5.732;2023-04-25T16:34:34;2.43;;;1.80;;
15669;SDS011;18524;45.190;5.732;2023-04-25T16:39:24;3.27;;;2.03;;
15669;SDS011;18524;45.190;5.732;2023-04-25T16:44:15;3.23;;;2.20;;
15669;SDS011;18524;45.190;5.732;2023-04-25T16:49:05;2.83;;;2.17;;
15669;SDS011;18524;45.190;5.732;2023-04-25T16:53:57;5.13;;;2.10;;
15669;SDS011;18524;45.190;5.732;2023-04-25T16:58:48;2.60;;;1.83;;
15669;SDS011;18524;45.190;5.732;2023-04-25T17:03:38;3.50;;;2.20;;
15669;SDS011;18524;45.190;5.732;2023-04-25T17:08:29;4.13;;;2.20;;
15669;SDS011;18524;45.190;5.732;2023-04-25T17:13:19;2.93;;;2.03;;
15669;SDS011;18524;45.190;5.732;2023-04-25T17:18:10;3.47;;;2.20;;
15669;SDS011;18524;45.190;5.732;2023-04-25T17:23:00;4.20;;;2.20;;
15669;SDS011;18524;45.190;5.732;2023-04-25T17:27:51;2.97;;;2.10;;
15669;SDS011;18524;45.190;5.732;2023-04-25T17:32:42;2.80;;;2.27;;
15669;SDS011;18524;45.190;5.732;2023-04-25T17:37:32;2.50;;;2.30;;
15669;SDS011;18524;45.190;5.732;2023-04-25T17:42:22;3.20;;;2.60;;
15669;SDS011;18524;45.190;5.732;2023-04-25T17:47:13;5.30;;;3.10;;
15669;SDS011;18524;45.190;5.732;2023-04-25T17:52:03;4.13;;;2.77;;
15669;SDS011;18524;45.190;5.732;2023-04-25T17:56:55;4.93;;;2.80;;
15669;SDS011;18524;45.190;5.732;2023-04-25T18:01:46;5.17;;;2.60;;
15669;SDS011;18524;45.190;5.732;2023-04-25T18:06:36;5.87;;;3.30;;
15669;SDS011;18524;45.190;5.732;2023-04-25T18:11:28;4.53;;;3.03;;
15669;SDS011;18524;45.190;5.732;2023-04-25T18:16:18;4.70;;;2.90;;
15669;SDS011;18524;45.190;5.732;2023-04-25T18:21:09;3.97;;;2.50;;
15669;SDS011;18524;45.190;5.732;2023-04-25T18:26:00;4.43;;;2.43;;
15669;SDS011;18524;45.190;5.732;2023-04-25T18:30:51;3.67;;;2.40;;
15669;SDS011;18524;45.190;5.732;2023-04-25T18:35:43;3.03;;;2.60;;
15669;SDS011;18524;45.190;5.732;2023-04-25T18:40:33;4.23;;;2.90;;
15669;SDS011;18524;45.190;5.732;2023-04-25T18:45:23;6.03;;;3.67;;
15669;SDS011;18524;45.190;5.732;2023-04-25T18:50:14;4.80;;;2.80;;
15669;SDS011;18524;45.190;5.732;2023-04-25T18:55:07;4.27;;;3.00;;
15669;SDS011;18524;45.190;5.732;2023-04-25T18:59:58;6.13;;;4.10;;
15669;SDS011;18524;45.190;5.732;2023-04-25T19:04:53;3.57;;;3.10;;
15669;SDS011;18524;45.190;5.732;2023-04-25T19:09:44;5.43;;;3.13;;
15669;SDS011;18524;45.190;5.732;2023-04-25T19:14:34;3.67;;;3.10;;
15669;SDS011;18524;45.190;5.732;2023-04-25T19:19:25;3.73;;;2.70;;
15669;SDS011;18524;45.190;5.732;2023-04-25T19:24:16;4.73;;;2.63;;
15669;SDS011;18524;45.190;5.732;2023-04-25T19:29:10;5.40;;;3.30;;
15669;SDS011;18524;45.190;5.732;2023-04-25T19:34:03;4.37;;;3.30;;
15669;SDS011;18524;45.190;5.732;2023-04-25T19:38:54;6.20;;;3.17;;
15669;SDS011;18524;45.190;5.732;2023-04-25T19:43:50;4.37;;;2.67;;
15669;SDS011;18524;45.190;5.732;2023-04-25T19:48:41;3.87;;;2.33;;
15669;SDS011;18524;45.190;5.732;2023-04-25T19:53:33;3.47;;;2.20;;
15669;SDS011;18524;45.190;5.732;2023-04-25T19:58:23;3.63;;;2.40;;
15669;SDS011;18524;45.190;5.732;2023-04-25T20:03:13;2.53;;;2.33;;
15669;SDS011;18524;45.190;5.732;2023-04-25T20:08:05;4.17;;;2.30;;
15669;SDS011;18524;45.190;5.732;2023-04-25T20:12:55;3.67;;;2.40;;
15669;SDS011;18524;45.190;5.732;2023-04-25T20:17:46;4.87;;;2.37;;
15669;SDS011;18524;45.190;5.732;2023-04-25T20:22:36;3.00;;;2.37;;
15669;SDS011;18524;45.190;5.732;2023-04-25T20:27:29;3.07;;;1.93;;
15669;SDS011;18524;45.190;5.732;2023-04-25T20:32:20;2.87;;;1.80;;
15669;SDS011;18524;45.190;5.732;2023-04-25T20:37:11;3.27;;;2.30;;
15669;SDS011;18524;45.190;5.732;2023-04-25T20:42:01;3.40;;;2.27;;
15669;SDS011;18524;45.190;5.732;2023-04-25T20:46:51;3.93;;;2.43;;
15669;SDS011;18524;45.190;5.732;2023-04-25T20:51:42;2.77;;;2.20;;
15669;SDS011;18524;45.190;5.732;2023-04-25T20:56:32;2.77;;;2.10;;
15669;SDS011;18524;45.190;5.732;2023-04-25T21:01:24;3.03;;;2.17;;
15669;SDS011;18524;45.190;5.732;2023-04-25T21:06:15;3.03;;;1.97;;
15669;SDS011;18524;45.190;5.732;2023-04-25T21:11:06;3.13;;;2.10;;
15669;SDS011;18524;45.190;5.732;2023-04-25T21:15:57;3.43;;;2.70;;
15669;SDS011;18524;45.190;5.732;2023-04-25T21:20:48;5.63;;;3.13;;
15669;SDS011;18524;45.190;5.732;2023-04-25T21:25:38;6.07;;;3.90;;
15669;SDS011;18524;45.190;5.732;2023-04-25T21:30:29;6.53;;;3.83;;
15669;SDS011;18524;45.190;5.732;2023-04-25T21:35:20;6.60;;;4.20;;
15669;SDS011;18524;45.190;5.732;2023-04-25T21:40:11;5.77;;;4.27;;
15669;SDS011;18524;45.190;5.732;2023-04-25T21:45:03;5.17;;;3.67;;
15669;SDS011;18524;45.190;5.732;2023-04-25T21:49:56;7.20;;;3.90;;
15669;SDS011;18524;45.190;5.732;2023-04-25T21:54:46;4.17;;;3.33;;
15669;SDS011;18524;45.190;5.732;2023-04-25T21:59:37;5.07;;;3.47;;
15669;SDS011;18524;45.190;5.732;2023-04-25T22:04:27;4.37;;;3.03;;
15669;SDS011;18524;45.190;5.732;2023-04-25T22:09:17;4.87;;;3.03;;
15669;SDS011;18524;45.190;5.732;2023-04-25T22:14:08;3.87;;;3.20;;
15669;SDS011;18524;45.190;5.732;2023-04-25T22:18:59;3.53;;;3.10;;
15669;SDS011;18524;45.190;5.732;2023-04-25T22:23:50;4.53;;;3.30;;
15669;SDS011;18524;45.190;5.732;2023-04-25T22:28:41;5.87;;;3.60;;
15669;SDS011;18524;45.190;5.732;2023-04-25T22:33:32;4.77;;;3.40;;
15669;SDS011;18524;45.190;5.732;2023-04-25T22:38:22;3.60;;;3.10;;
15669;SDS011;18524;45.190;5.732;2023-04-25T22:43:13;4.77;;;3.10;;
15669;SDS011;18524;45.190;5.732;2023-04-25T22:48:04;4.50;;;3.30;;
15669;SDS011;18524;45.190;5.732;2023-04-25T22:52:55;4.23;;;3.40;;
15669;SDS011;18524;45.190;5.732;2023-04-25T22:57:45;4.20;;;3.27;;
15669;SDS011;18524;45.190;5.732;2023-04-25T23:02:36;5.10;;;3.33;;
15669;SDS011;18524;45.190;5.732;2023-04-25T23:07:27;3.33;;;2.60;;
15669;SDS011;18524;45.190;5.732;2023-04-25T23:12:18;3.30;;;2.70;;
15669;SDS011;18524;45.190;5.732;2023-04-25T23:17:08;4.40;;;3.53;;
15669;SDS011;18524;45.190;5.732;2023-04-25T23:21:58;4.40;;;3.20;;
15669;SDS011;18524;45.190;5.732;2023-04-25T23:26:49;3.53;;;3.20;;
15669;SDS011;18524;45.190;5.732;2023-04-25T23:31:39;4.93;;;3.00;;
15669;SDS011;18524;45.190;5.732;2023-04-25T23:36:30;5.23;;;3.07;;
15669;SDS011;18524;45.190;5.732;2023-04-25T23:41:20;3.00;;;2.70;;
15669;SDS011;18524;45.190;5.732;2023-04-25T23:46:11;4.47;;;3.30;;
15669;SDS011;18524;45.190;5.732;2023-04-25T23:51:02;5.17;;;3.00;;
15669;SDS011;18524;45.190;5.732;2023-04-25T23:55:52;5.67;;;3.40;;
